Time;durP1;ratioP1;P1;durP2;ratioP2;P2;SDS_P1;SDS_P2;PMS_P1;PMS_P2;Temp;Humidity;BMP_temperature;BMP_pressure;BME280_temperature;BME280_humidity;BME280_pressure;Samples;Min_cycle;Max_cycle;Signal;HPM_P1;HPM_P2
2022/07/17 00:01:41;;;;;;;4.43;2.38;;;12.80;99.90;;;;;;4992988;28;20077;-60
2022/07/17 00:04:07;;;;;;;7.03;3.20;;;12.80;99.90;;;;;;4991178;28;20515;-60
2022/07/17 00:06:33;;;;;;;6.22;3.35;;;12.70;99.90;;;;;;4991709;28;20045;-60
2022/07/17 00:08:58;;;;;;;9.00;4.13;;;12.70;99.90;;;;;;4993408;28;20046;-60
2022/07/17 00:11:25;;;;;;;12.73;4.15;;;12.70;99.90;;;;;;4994223;28;20049;-60
2022/07/17 00:13:53;;;;;;;10.93;4.00;;;12.60;99.90;;;;;;4992196;28;20436;-59
2022/07/17 00:16:18;;;;;;;10.20;3.85;;;12.60;99.90;;;;;;4994136;28;20050;-60
2022/07/17 00:18:44;;;;;;;7.32;3.60;;;12.60;99.90;;;;;;4991827;28;20088;-60
2022/07/17 00:21:10;;;;;;;9.18;3.53;;;12.50;99.90;;;;;;4983353;28;20054;-60
2022/07/17 00:23:36;;;;;;;9.60;3.75;;;12.50;99.90;;;;;;4994141;28;20045;-60
2022/07/17 00:26:02;;;;;;;5.32;2.95;;;12.50;99.90;;;;;;5005500;28;20518;-60
2022/07/17 00:28:28;;;;;;;6.65;2.97;;;12.50;99.90;;;;;;4996266;28;20050;-59
2022/07/17 00:30:54;;;;;;;8.40;3.83;;;12.50;99.90;;;;;;4999151;28;20045;-60
2022/07/17 00:33:19;;;;;;;9.98;3.90;;;12.50;99.90;;;;;;4993371;28;20050;-60
2022/07/17 00:35:45;;;;;;;8.43;3.22;;;12.50;99.90;;;;;;4996840;28;20599;-60
2022/07/17 00:38:11;;;;;;;5.20;3.33;;;12.50;99.90;;;;;;4992224;28;20088;-59
2022/07/17 00:40:37;;;;;;;7.97;3.15;;;12.40;99.90;;;;;;4993445;28;20115;-61
2022/07/17 00:43:03;;;;;;;4.30;3.05;;;12.40;99.90;;;;;;4988326;28;20046;-59
2022/07/17 00:45:28;;;;;;;7.50;3.50;;;12.40;99.90;;;;;;4994414;28;20057;-59
2022/07/17 00:48:00;;;;;;;6.68;3.33;;;12.40;99.90;;;;;;4995089;28;20072;-60
2022/07/17 00:50:34;;;;;;;8.65;3.80;;;12.40;99.90;;;;;;4998925;28;20046;-60
2022/07/17 00:53:00;;;;;;;5.65;3.60;;;12.40;99.90;;;;;;4997807;28;20583;-60
2022/07/17 00:55:27;;;;;;;8.95;4.70;;;12.30;99.90;;;;;;4994415;28;20057;-58
2022/07/17 00:57:55;;;;;;;8.52;4.80;;;12.30;99.90;;;;;;4991959;28;20073;-60
2022/07/17 01:00:22;;;;;;;7.40;3.88;;;12.20;99.90;;;;;;4991104;28;20050;-60
2022/07/17 01:02:53;;;;;;;8.55;3.50;;;12.20;99.90;;;;;;4993259;28;20530;-60
2022/07/17 01:05:21;;;;;;;7.95;3.75;;;12.20;99.90;;;;;;4995431;28;20056;-59
2022/07/17 01:07:48;;;;;;;10.52;3.67;;;12.20;99.90;;;;;;4993508;28;20061;-61
2022/07/17 01:10:16;;;;;;;8.77;3.70;;;12.10;99.90;;;;;;4991761;28;20538;-60
2022/07/17 01:12:42;;;;;;;6.03;3.72;;;12.10;99.90;;;;;;4995667;28;20077;-59
2022/07/17 01:15:09;;;;;;;6.57;3.58;;;12.10;99.90;;;;;;4969770;28;20040;-58
2022/07/17 01:17:36;;;;;;;10.82;3.83;;;12.10;99.90;;;;;;5004021;28;20081;-60
2022/07/17 01:20:07;;;;;;;8.23;3.72;;;12.00;99.90;;;;;;4993876;28;20173;-60
2022/07/17 01:22:39;;;;;;;13.20;4.03;;;12.00;99.90;;;;;;4992760;28;20172;-61
2022/07/17 01:25:06;;;;;;;11.13;4.85;;;12.00;99.90;;;;;;4994351;28;20088;-59
2022/07/17 01:27:32;;;;;;;9.25;4.10;;;12.00;99.90;;;;;;4988362;28;20420;-60
2022/07/17 01:29:57;;;;;;;6.32;3.40;;;12.00;99.90;;;;;;4996833;28;20057;-60
2022/07/17 01:32:34;;;;;;;5.43;3.83;;;12.00;99.90;;;;;;4992714;28;20436;-59
2022/07/17 01:35:01;;;;;;;8.20;4.18;;;12.00;99.90;;;;;;4993319;28;20077;-60
2022/07/17 01:37:27;;;;;;;7.75;3.92;;;12.00;99.90;;;;;;4989950;28;20052;-60
2022/07/17 01:39:53;;;;;;;6.82;4.03;;;12.00;99.90;;;;;;4993691;28;20050;-60
2022/07/17 01:42:21;;;;;;;8.27;3.63;;;11.90;99.90;;;;;;4988489;28;20413;-60
2022/07/17 01:44:47;;;;;;;5.65;3.67;;;11.90;99.90;;;;;;4994991;28;20156;-60
2022/07/17 01:47:14;;;;;;;10.43;4.05;;;11.90;99.90;;;;;;4993410;28;20404;-60
2022/07/17 01:49:45;;;;;;;8.05;4.10;;;11.90;99.90;;;;;;4994576;28;20199;-58
2022/07/17 01:52:11;;;;;;;9.55;5.20;;;11.80;99.90;;;;;;4990587;28;23364;-59
2022/07/17 01:54:37;;;;;;;8.27;4.70;;;11.80;99.90;;;;;;4992045;28;20054;-58
2022/07/17 01:57:03;;;;;;;9.65;4.95;;;11.80;99.90;;;;;;4996222;28;20392;-58
2022/07/17 01:59:29;;;;;;;7.85;4.50;;;11.80;99.90;;;;;;5012622;28;20037;-59
2022/07/17 02:01:55;;;;;;;8.98;4.65;;;11.80;99.90;;;;;;5000943;28;20077;-60
2022/07/17 02:04:21;;;;;;;12.40;4.90;;;11.80;99.90;;;;;;4993872;28;20057;-59
2022/07/17 02:06:46;;;;;;;6.63;4.68;;;11.80;99.90;;;;;;4992257;28;20485;-59
2022/07/17 02:09:12;;;;;;;10.35;4.55;;;11.80;99.90;;;;;;4994696;28;20049;-59
2022/07/17 02:11:39;;;;;;;6.53;4.30;;;11.80;99.90;;;;;;4993490;28;20056;-60
2022/07/17 02:14:05;;;;;;;8.68;4.65;;;11.80;99.90;;;;;;4996662;28;20116;-59
2022/07/17 02:16:30;;;;;;;7.90;4.47;;;11.80;99.90;;;;;;4991949;28;20136;-60
2022/07/17 02:18:56;;;;;;;9.30;5.10;;;11.80;99.90;;;;;;4992794;28;22733;-60
2022/07/17 02:21:22;;;;;;;8.57;4.32;;;11.80;99.90;;;;;;4992239;28;20125;-58
2022/07/17 02:23:48;;;;;;;6.95;4.03;;;11.70;99.90;;;;;;4995632;28;20046;-58
2022/07/17 02:26:14;;;;;;;6.68;4.15;;;11.70;99.90;;;;;;4995200;28;20060;-59
2022/07/17 02:28:39;;;;;;;11.43;4.20;;;11.70;99.90;;;;;;4995401;28;20042;-59
2022/07/17 02:31:05;;;;;;;10.45;4.75;;;11.70;99.90;;;;;;4996838;28;20037;-60
2022/07/17 02:33:31;;;;;;;10.52;5.18;;;11.70;99.90;;;;;;4992602;28;20484;-59
2022/07/17 02:35:57;;;;;;;11.10;4.63;;;11.60;99.90;;;;;;4997214;28;20392;-60
2022/07/17 02:38:23;;;;;;;8.82;4.50;;;11.60;99.90;;;;;;4992647;28;20051;-60
2022/07/17 02:40:49;;;;;;;7.18;4.63;;;11.60;99.90;;;;;;4992177;28;20046;-59
2022/07/17 02:43:15;;;;;;;10.50;5.40;;;11.60;99.90;;;;;;5008265;28;20084;-59
2022/07/17 02:45:40;;;;;;;7.85;4.70;;;11.60;99.90;;;;;;4994008;28;20049;-59
2022/07/17 02:48:06;;;;;;;9.63;3.90;;;11.60;99.90;;;;;;4995604;28;20042;-60
2022/07/17 02:50:32;;;;;;;9.73;4.30;;;11.60;99.90;;;;;;4995356;28;20072;-59
2022/07/17 02:52:58;;;;;;;7.85;3.63;;;11.60;99.90;;;;;;4992742;28;20049;-59
2022/07/17 02:55:24;;;;;;;6.63;3.53;;;11.60;99.90;;;;;;4996847;28;20046;-59
2022/07/17 02:57:50;;;;;;;5.22;3.72;;;11.60;99.90;;;;;;4994109;28;20597;-60
2022/07/17 03:00:17;;;;;;;5.13;3.05;;;11.60;99.90;;;;;;4994170;28;20042;-59
2022/07/17 03:02:44;;;;;;;8.80;3.25;;;11.50;99.90;;;;;;4987351;28;20197;-59
2022/07/17 03:05:11;;;;;;;6.47;3.78;;;11.50;99.90;;;;;;4993036;28;20103;-59
2022/07/17 03:07:37;;;;;;;5.25;3.70;;;11.50;99.90;;;;;;4991189;28;20539;-60
2022/07/17 03:10:03;;;;;;;5.60;3.30;;;11.50;99.90;;;;;;4993079;28;20354;-58
2022/07/17 03:12:29;;;;;;;6.55;3.63;;;11.50;99.90;;;;;;4992605;28;20448;-59
2022/07/17 03:14:55;;;;;;;5.88;3.25;;;11.50;99.90;;;;;;4984988;28;20136;-59
2022/07/17 03:17:21;;;;;;;7.10;3.95;;;11.40;99.90;;;;;;4986028;28;20523;-58
2022/07/17 03:19:47;;;;;;;7.70;3.80;;;11.50;99.90;;;;;;4988511;28;20046;-59
2022/07/17 03:22:13;;;;;;;6.30;3.53;;;11.40;99.90;;;;;;4991290;28;20503;-59
2022/07/17 03:24:39;;;;;;;5.70;3.28;;;11.40;99.90;;;;;;4992986;28;20149;-59
2022/07/17 03:27:05;;;;;;;10.48;3.42;;;11.40;99.90;;;;;;5008912;28;20508;-60
2022/07/17 03:29:30;;;;;;;6.55;3.60;;;11.50;99.90;;;;;;4991103;28;20629;-58
2022/07/17 03:31:56;;;;;;;6.10;3.30;;;11.50;99.90;;;;;;4996208;28;20455;-59
2022/07/17 03:34:22;;;;;;;7.43;3.40;;;11.40;99.90;;;;;;4988607;28;20073;-59
2022/07/17 03:36:48;;;;;;;11.05;3.95;;;11.40;99.90;;;;;;5007817;28;20674;-57
2022/07/17 03:39:14;;;;;;;9.05;4.50;;;11.40;99.90;;;;;;4993758;28;20049;-60
2022/07/17 03:41:40;;;;;;;6.28;4.00;;;11.40;99.90;;;;;;4996318;28;20139;-61
2022/07/17 03:44:06;;;;;;;7.38;4.15;;;11.40;99.90;;;;;;4989341;28;20133;-60
2022/07/17 03:46:32;;;;;;;6.18;3.97;;;11.40;99.90;;;;;;4994115;28;20052;-60
2022/07/17 03:48:58;;;;;;;12.23;3.65;;;11.40;99.90;;;;;;4997411;28;20481;-61
2022/07/17 03:51:24;;;;;;;6.28;3.90;;;11.50;99.90;;;;;;4992458;28;20095;-57
2022/07/17 03:53:50;;;;;;;7.75;4.07;;;11.40;99.90;;;;;;4993277;28;20060;-59
2022/07/17 03:56:16;;;;;;;7.10;3.83;;;11.50;99.90;;;;;;4993679;28;20480;-58
2022/07/17 03:58:42;;;;;;;8.15;3.83;;;11.50;99.90;;;;;;5009990;28;20038;-58
2022/07/17 04:01:08;;;;;;;11.02;4.28;;;11.50;99.90;;;;;;4999078;28;20829;-58
2022/07/17 04:03:34;;;;;;;6.88;3.97;;;11.50;99.90;;;;;;4996286;28;20496;-58
2022/07/17 04:05:59;;;;;;;13.85;4.13;;;11.50;99.90;;;;;;4995937;28;20101;-59
2022/07/17 04:08:25;;;;;;;10.02;4.13;;;11.60;99.90;;;;;;4998833;28;20041;-58
2022/07/17 04:10:51;;;;;;;5.57;3.63;;;11.60;99.90;;;;;;4995467;28;20405;-59
2022/07/17 04:13:17;;;;;;;8.57;3.85;;;11.60;99.90;;;;;;4992595;28;20743;-58
2022/07/17 04:15:49;;;;;;;7.75;3.65;;;11.60;99.90;;;;;;4989880;28;20563;-60
2022/07/17 04:18:16;;;;;;;8.68;3.90;;;11.70;99.90;;;;;;4998807;28;20361;-59
2022/07/17 04:20:42;;;;;;;5.13;3.58;;;11.70;99.90;;;;;;4993731;28;20049;-58
2022/07/17 04:23:08;;;;;;;8.95;4.07;;;11.70;99.90;;;;;;4990779;28;20584;-58
2022/07/17 04:25:33;;;;;;;12.20;4.07;;;11.80;99.90;;;;;;4995277;28;20468;-58
2022/07/17 04:27:59;;;;;;;6.22;3.83;;;11.80;99.90;;;;;;4995134;28;20050;-58
2022/07/17 04:30:25;;;;;;;7.97;4.38;;;11.80;99.90;;;;;;4994218;28;20172;-59
2022/07/17 04:32:51;;;;;;;9.60;3.75;;;11.80;99.90;;;;;;4993863;28;20085;-58
2022/07/17 04:35:16;;;;;;;10.95;4.18;;;11.80;99.90;;;;;;4996888;28;20057;-59
2022/07/17 04:37:42;;;;;;;9.18;4.40;;;11.80;99.90;;;;;;4997401;28;20050;-59
2022/07/17 04:40:09;;;;;;;6.72;4.18;;;11.80;99.90;;;;;;4995618;28;20640;-58
2022/07/17 04:42:34;;;;;;;7.50;4.20;;;11.90;99.90;;;;;;4996787;28;20038;-59
2022/07/17 04:45:00;;;;;;;6.60;3.70;;;11.90;99.90;;;;;;4994995;28;20049;-59
2022/07/17 04:47:26;;;;;;;10.30;4.45;;;11.90;99.90;;;;;;4990965;28;20046;-59
2022/07/17 04:49:52;;;;;;;8.35;3.90;;;11.90;99.90;;;;;;4999099;28;20504;-59
2022/07/17 04:52:18;;;;;;;7.63;3.60;;;12.00;99.90;;;;;;4994318;28;20496;-59
2022/07/17 04:54:43;;;;;;;10.73;4.05;;;12.00;99.90;;;;;;4991600;28;20050;-59
2022/07/17 04:57:09;;;;;;;5.78;3.53;;;12.00;99.90;;;;;;4992193;28;20056;-60
2022/07/17 04:59:37;;;;;;;9.18;4.25;;;12.00;99.90;;;;;;4993326;28;20050;-60
2022/07/17 05:02:03;;;;;;;7.95;3.60;;;12.10;99.90;;;;;;4992436;28;20046;-60
2022/07/17 05:04:29;;;;;;;7.28;3.67;;;12.10;99.90;;;;;;4993037;28;20058;-59
2022/07/17 05:06:55;;;;;;;10.15;4.32;;;12.20;99.90;;;;;;4997879;28;20050;-59
2022/07/17 05:09:21;;;;;;;7.53;4.00;;;12.20;99.90;;;;;;4992747;28;24373;-59
2022/07/17 05:11:47;;;;;;;6.55;3.47;;;12.20;99.90;;;;;;4990444;28;20049;-59
2022/07/17 05:14:13;;;;;;;11.65;3.88;;;12.30;99.90;;;;;;4994912;28;20058;-59
2022/07/17 05:16:39;;;;;;;6.25;3.30;;;12.40;99.90;;;;;;4987978;28;20045;-59
2022/07/17 05:19:05;;;;;;;10.20;4.15;;;12.40;99.90;;;;;;4992186;28;20048;-59
2022/07/17 05:21:31;;;;;;;8.05;3.25;;;12.50;99.90;;;;;;4991914;28;20512;-59
2022/07/17 05:23:57;;;;;;;7.05;3.40;;;12.50;99.90;;;;;;4989959;28;20042;-58
2022/07/17 05:26:24;;;;;;;7.57;3.67;;;12.50;99.90;;;;;;4990270;28;20396;-59
2022/07/17 05:28:50;;;;;;;4.97;3.53;;;12.60;99.90;;;;;;4995940;28;20054;-59
2022/07/17 05:31:16;;;;;;;8.68;4.13;;;12.70;99.90;;;;;;4995216;28;20484;-58
2022/07/17 05:33:41;;;;;;;6.57;3.80;;;12.70;99.90;;;;;;4994949;28;20052;-59
2022/07/17 05:36:08;;;;;;;7.05;3.92;;;12.80;99.90;;;;;;4992245;28;20591;-60
2022/07/17 05:38:33;;;;;;;5.38;3.80;;;12.90;99.90;;;;;;4994875;28;20042;-60
2022/07/17 05:41:00;;;;;;;11.68;3.85;;;12.90;99.90;;;;;;4996193;28;20056;-60
2022/07/17 05:43:26;;;;;;;8.15;4.28;;;13.00;99.90;;;;;;4992852;28;20053;-59
2022/07/17 05:45:57;;;;;;;7.63;3.67;;;13.10;99.90;;;;;;4993626;28;20045;-59
2022/07/17 05:48:23;;;;;;;10.38;3.38;;;13.20;99.90;;;;;;4994348;28;20092;-64
2022/07/17 05:50:49;;;;;;;7.25;3.40;;;13.20;99.90;;;;;;4996152;28;20050;-65
2022/07/17 05:53:15;;;;;;;7.13;3.20;;;13.30;99.90;;;;;;4990438;28;20854;-65
2022/07/17 05:55:42;;;;;;;13.25;3.20;;;13.30;99.90;;;;;;4967349;28;20408;-66
2022/07/17 05:58:08;;;;;;;6.70;3.42;;;13.40;99.90;;;;;;4994919;28;20041;-65
2022/07/17 06:00:34;;;;;;;5.53;3.03;;;13.50;99.90;;;;;;4971308;28;20445;-65
2022/07/17 06:03:00;;;;;;;7.57;2.90;;;13.50;99.90;;;;;;4986795;28;20084;-65
2022/07/17 06:05:27;;;;;;;5.50;2.58;;;13.60;99.90;;;;;;4971351;28;20112;-66
2022/07/17 06:07:54;;;;;;;7.97;2.80;;;13.70;99.90;;;;;;4992125;28;20054;-64
2022/07/17 06:10:20;;;;;;;9.38;3.00;;;13.70;99.90;;;;;;4968268;28;20050;-65
2022/07/17 06:12:46;;;;;;;8.07;2.30;;;13.80;99.90;;;;;;4985927;28;20046;-65
2022/07/17 06:15:12;;;;;;;6.63;2.83;;;13.90;99.90;;;;;;5004812;28;20042;-65
2022/07/17 06:17:38;;;;;;;6.28;2.17;;;14.00;99.90;;;;;;4988254;28;20059;-65
2022/07/17 06:20:05;;;;;;;7.05;2.63;;;14.10;99.90;;;;;;4975016;28;20128;-64
2022/07/17 06:22:31;;;;;;;10.40;2.95;;;14.20;99.90;;;;;;4991732;28;20088;-65
2022/07/17 06:24:57;;;;;;;5.25;2.30;;;14.30;99.90;;;;;;4992254;28;20066;-66
2022/07/17 06:27:23;;;;;;;5.28;2.95;;;14.50;99.90;;;;;;4970740;28;20052;-65
2022/07/17 06:29:49;;;;;;;8.60;2.40;;;14.60;99.90;;;;;;4993519;28;20744;-65
2022/07/17 06:32:16;;;;;;;6.68;2.63;;;14.70;99.90;;;;;;5001849;28;20049;-65
2022/07/17 06:34:42;;;;;;;6.45;1.80;;;14.80;99.90;;;;;;5014868;28;20396;-65
2022/07/17 06:37:08;;;;;;;8.32;2.00;;;15.00;99.90;;;;;;4982594;28;20080;-63
2022/07/17 06:39:34;;;;;;;5.18;1.80;;;15.10;99.90;;;;;;5000529;28;20080;-64
2022/07/17 06:42:00;;;;;;;7.95;2.00;;;15.20;99.90;;;;;;5000902;28;20100;-64
2022/07/17 06:44:26;;;;;;;7.90;1.67;;;15.30;99.90;;;;;;4998699;28;20054;-63
2022/07/17 06:46:51;;;;;;;5.72;1.70;;;15.30;99.90;;;;;;5000292;28;20042;-63
2022/07/17 06:49:17;;;;;;;4.20;1.50;;;15.40;99.90;;;;;;5015527;28;20069;-63
2022/07/17 06:51:45;;;;;;;6.60;1.85;;;15.40;99.90;;;;;;5016502;28;20085;-64
2022/07/17 06:54:12;;;;;;;8.57;2.33;;;15.50;99.90;;;;;;5000022;28;20050;-63
2022/07/17 06:56:38;;;;;;;5.72;1.52;;;15.50;99.90;;;;;;4984238;28;20048;-63
2022/07/17 06:59:07;;;;;;;6.82;1.63;;;15.60;99.90;;;;;;4983257;28;20103;-63
2022/07/17 07:01:36;;;;;;;6.85;1.67;;;15.60;99.90;;;;;;5006406;28;20038;-63
2022/07/17 07:04:03;;;;;;;5.78;1.55;;;15.60;99.90;;;;;;4983008;28;20881;-64
2022/07/17 07:06:29;;;;;;;6.93;1.70;;;15.70;99.90;;;;;;5001043;28;20046;-63
2022/07/17 07:08:55;;;;;;;6.15;1.85;;;15.70;99.90;;;;;;4997807;28;20052;-64
2022/07/17 07:11:21;;;;;;;3.95;1.60;;;15.80;99.90;;;;;;5015572;28;20050;-64
2022/07/17 07:13:47;;;;;;;4.80;1.60;;;15.80;99.90;;;;;;4998233;28;20050;-63
2022/07/17 07:16:13;;;;;;;5.00;1.52;;;15.90;99.90;;;;;;4996990;28;20127;-64
2022/07/17 07:18:39;;;;;;;4.10;1.67;;;15.90;99.90;;;;;;4997568;28;20057;-64
2022/07/17 07:21:05;;;;;;;6.85;1.55;;;16.00;99.90;;;;;;5002604;28;20151;-64
2022/07/17 07:23:31;;;;;;;8.23;1.65;;;16.10;99.90;;;;;;5003833;28;20065;-63
2022/07/17 07:25:56;;;;;;;5.03;1.42;;;16.10;99.90;;;;;;4986852;28;20049;-63
2022/07/17 07:28:22;;;;;;;8.18;1.90;;;16.20;99.90;;;;;;5003914;28;20050;-64
2022/07/17 07:30:48;;;;;;;7.60;1.48;;;16.30;99.90;;;;;;5004455;28;20049;-64
2022/07/17 07:33:16;;;;;;;6.20;1.77;;;16.30;99.90;;;;;;5019823;28;20469;-64
2022/07/17 07:35:42;;;;;;;4.93;1.50;;;16.40;99.90;;;;;;5004654;28;20042;-63
2022/07/17 07:38:08;;;;;;;8.68;1.58;;;16.50;99.90;;;;;;5002078;28;20049;-64
2022/07/17 07:40:35;;;;;;;5.47;1.50;;;16.60;99.90;;;;;;5003230;28;20050;-63
2022/07/17 07:43:01;;;;;;;10.80;1.70;;;16.70;99.90;;;;;;5003975;28;20061;-64
2022/07/17 07:45:27;;;;;;;3.92;1.65;;;16.70;99.90;;;;;;4989440;28;20100;-63
2022/07/17 07:47:54;;;;;;;4.40;1.60;;;16.80;99.90;;;;;;5018395;28;20408;-63
2022/07/17 07:50:23;;;;;;;4.38;1.75;;;16.90;99.90;;;;;;5003285;28;20108;-64
2022/07/17 07:52:49;;;;;;;7.60;1.60;;;17.00;99.90;;;;;;5003821;28;20045;-63
2022/07/17 07:55:16;;;;;;;4.88;1.35;;;17.10;99.90;;;;;;4985314;28;20045;-64
2022/07/17 07:57:42;;;;;;;5.60;1.45;;;17.10;99.90;;;;;;5004266;28;20096;-64
2022/07/17 08:00:09;;;;;;;5.28;1.70;;;17.20;99.90;;;;;;5002712;28;20038;-64
2022/07/17 08:02:35;;;;;;;4.85;1.27;;;17.20;99.90;;;;;;5003879;28;20042;-65
2022/07/17 08:05:01;;;;;;;4.05;1.35;;;17.20;99.90;;;;;;5001185;28;20108;-64
2022/07/17 08:07:28;;;;;;;7.65;1.52;;;17.30;99.90;;;;;;5018533;28;20056;-65
2022/07/17 08:09:55;;;;;;;7.40;1.45;;;17.50;99.90;;;;;;5002777;28;20540;-63
2022/07/17 08:12:22;;;;;;;4.60;1.40;;;17.50;99.90;;;;;;4987839;28;20245;-64
2022/07/17 08:14:49;;;;;;;4.75;1.60;;;17.70;99.90;;;;;;5020927;28;20046;-65
2022/07/17 08:17:15;;;;;;;3.97;1.48;;;17.90;99.90;;;;;;5003891;28;20038;-64
2022/07/17 08:19:40;;;;;;;6.80;1.50;;;18.00;99.90;;;;;;5001342;28;20633;-64
2022/07/17 08:22:06;;;;;;;7.40;1.55;;;18.10;99.90;;;;;;5004486;28;20100;-65
2022/07/17 08:24:32;;;;;;;5.47;1.50;;;18.20;99.90;;;;;;5003640;28;20482;-64
2022/07/17 08:26:58;;;;;;;5.63;1.60;;;18.30;99.90;;;;;;4985794;28;20050;-64
2022/07/17 08:29:23;;;;;;;5.13;1.25;;;18.50;99.90;;;;;;5003687;28;20045;-64
2022/07/17 08:31:49;;;;;;;6.75;1.38;;;18.60;99.90;;;;;;5002888;28;20042;-64
2022/07/17 08:34:16;;;;;;;6.28;1.83;;;18.70;99.40;;;;;;4978894;28;20044;-64
2022/07/17 08:36:42;;;;;;;5.93;1.50;;;18.80;99.10;;;;;;5002390;28;20042;-64
2022/07/17 08:39:08;;;;;;;7.38;1.70;;;18.90;99.20;;;;;;5002179;28;20104;-64
2022/07/17 08:41:38;;;;;;;4.78;1.20;;;19.00;98.90;;;;;;5002637;28;20076;-64
2022/07/17 08:44:07;;;;;;;7.75;1.48;;;19.10;98.40;;;;;;4983555;28;20514;-64
2022/07/17 08:46:38;;;;;;;4.68;1.35;;;19.20;98.50;;;;;;5003920;28;20057;-64
2022/07/17 08:49:05;;;;;;;3.92;1.33;;;19.40;97.90;;;;;;4987455;28;20088;-64
2022/07/17 08:51:32;;;;;;;7.95;1.45;;;19.40;97.70;;;;;;4977272;28;20100;-65
2022/07/17 08:53:58;;;;;;;7.60;1.73;;;19.50;97.60;;;;;;5001024;28;20104;-64
2022/07/17 08:56:25;;;;;;;3.85;1.40;;;19.60;97.30;;;;;;5003805;28;20073;-64
2022/07/17 08:58:51;;;;;;;5.30;1.35;;;19.70;97.00;;;;;;5001830;28;20455;-65
2022/07/17 09:01:19;;;;;;;8.48;1.50;;;19.80;97.00;;;;;;5004695;28;20046;-64
2022/07/17 09:04:00;;;;;;;9.18;1.80;;;19.90;96.40;;;;;;5002689;28;20478;-65
2022/07/17 09:06:27;;;;;;;4.53;1.20;;;20.00;96.30;;;;;;5003730;28;20050;-65
2022/07/17 09:09:13;;;;;;;3.40;1.30;;;20.10;96.10;;;;;;4984394;28;20456;-64
2022/07/17 09:11:50;;;;;;;4.47;1.15;;;20.30;95.80;;;;;;4996808;28;20057;-64
2022/07/17 09:14:17;;;;;;;8.63;1.70;;;20.30;95.40;;;;;;5018271;28;20498;-64
2022/07/17 09:16:57;;;;;;;6.70;1.40;;;20.50;95.30;;;;;;4978409;28;20038;-64
2022/07/17 09:19:30;;;;;;;7.20;1.52;;;20.60;94.70;;;;;;5017664;28;20110;-65
2022/07/17 09:22:24;;;;;;;8.13;1.40;;;20.70;94.80;;;;;;5018604;28;20038;-65
2022/07/17 09:24:51;;;;;;;6.45;1.50;;;20.80;94.70;;;;;;5001311;28;20073;-64
2022/07/17 09:27:23;;;;;;;3.28;1.25;;;21.00;94.30;;;;;;5018104;28;20049;-65
2022/07/17 09:30:01;;;;;;;6.63;1.65;;;21.10;94.20;;;;;;4986984;28;20159;-65
2022/07/17 09:32:29;;;;;;;5.03;1.38;;;21.30;93.40;;;;;;5002384;28;20783;-65
2022/07/17 09:34:57;;;;;;;4.80;1.58;;;21.40;93.40;;;;;;5001687;28;20034;-65
2022/07/17 09:37:25;;;;;;;5.28;1.27;;;21.50;93.30;;;;;;5000395;28;20085;-64
2022/07/17 09:39:53;;;;;;;4.10;1.40;;;21.70;93.30;;;;;;5017319;28;20096;-65
2022/07/17 09:42:29;;;;;;;4.53;1.20;;;21.80;92.30;;;;;;4989977;28;20052;-64
2022/07/17 09:45:00;;;;;;;5.45;1.20;;;21.80;91.50;;;;;;5002366;28;20092;-64
2022/07/17 09:47:27;;;;;;;2.40;1.10;;;21.90;91.80;;;;;;5004194;28;20061;-64
2022/07/17 09:49:54;;;;;;;5.18;1.67;;;22.00;91.50;;;;;;5001546;28;20809;-65
2022/07/17 09:52:22;;;;;;;5.28;1.40;;;22.10;90.50;;;;;;5000543;28;20177;-64
2022/07/17 09:54:49;;;;;;;7.97;1.45;;;22.10;90.20;;;;;;5000316;28;20049;-65
2022/07/17 09:57:15;;;;;;;6.10;1.45;;;22.20;90.20;;;;;;5015138;28;20053;-64
2022/07/17 09:59:42;;;;;;;4.82;1.30;;;22.30;89.20;;;;;;5001961;28;20046;-64
2022/07/17 10:02:09;;;;;;;2.17;1.00;;;22.40;88.20;;;;;;5000491;28;20053;-64
2022/07/17 10:04:36;;;;;;;5.78;1.55;;;22.50;86.90;;;;;;5000124;28;20058;-64
2022/07/17 10:07:02;;;;;;;3.05;1.30;;;22.60;85.90;;;;;;5001326;28;20046;-64
2022/07/17 10:09:29;;;;;;;5.45;1.40;;;22.60;84.30;;;;;;5000122;28;20057;-65
2022/07/17 10:11:56;;;;;;;5.10;1.35;;;22.70;85.00;;;;;;4985263;28;20050;-64
2022/07/17 10:14:22;;;;;;;4.18;1.20;;;22.80;85.80;;;;;;5001671;28;20516;-64
2022/07/17 10:16:48;;;;;;;6.72;1.30;;;23.00;85.80;;;;;;5001084;28;20440;-64
2022/07/17 10:19:22;;;;;;;4.10;1.50;;;23.10;82.80;;;;;;5001666;28;20408;-64
2022/07/17 10:22:00;;;;;;;5.85;1.40;;;23.30;81.00;;;;;;4998721;28;20076;-65
2022/07/17 10:24:30;;;;;;;4.32;1.40;;;23.40;81.40;;;;;;4966133;28;20057;-64
2022/07/17 10:26:57;;;;;;;3.70;1.30;;;23.50;79.40;;;;;;5002298;28;20500;-64
2022/07/17 10:29:33;;;;;;;5.45;1.25;;;23.50;80.30;;;;;;4999985;28;20049;-64
2022/07/17 10:32:00;;;;;;;3.97;1.77;;;23.70;81.40;;;;;;5001298;28;20116;-64
2022/07/17 10:34:38;;;;;;;3.42;1.30;;;23.80;80.70;;;;;;5000899;28;20112;-64
2022/07/17 10:37:28;;;;;;;3.05;1.25;;;23.90;79.60;;;;;;4992398;28;20557;-64
2022/07/17 10:40:00;;;;;;;3.67;1.08;;;24.10;79.40;;;;;;4975737;28;20069;-64
2022/07/17 10:42:45;;;;;;;4.88;1.30;;;24.10;78.00;;;;;;4984524;28;20519;-64
2022/07/17 10:45:24;;;;;;;6.47;1.42;;;24.10;76.80;;;;;;5003880;28;20049;-65
2022/07/17 10:47:57;;;;;;;4.00;1.20;;;24.20;77.60;;;;;;5015949;28;20492;-65
2022/07/17 10:50:35;;;;;;;5.43;1.30;;;24.40;76.10;;;;;;4999724;28;20125;-64
2022/07/17 10:53:05;;;;;;;4.72;1.40;;;24.50;76.70;;;;;;5000934;28;20073;-64
2022/07/17 10:55:32;;;;;;;2.95;1.00;;;24.70;76.20;;;;;;4998824;28;20959;-65
2022/07/17 10:57:58;;;;;;;3.85;1.40;;;24.80;76.80;;;;;;4972020;28;20424;-65
2022/07/17 11:00:25;;;;;;;3.47;1.33;;;25.10;75.00;;;;;;5007316;28;20045;-65
2022/07/17 11:02:51;;;;;;;4.00;1.30;;;25.20;72.90;;;;;;4992144;28;20401;-65
2022/07/17 11:05:17;;;;;;;4.32;1.45;;;25.20;73.30;;;;;;5005274;28;20133;-64
2022/07/17 11:07:55;;;;;;;3.30;1.23;;;25.30;72.80;;;;;;5006519;28;20053;-64
2022/07/17 11:10:25;;;;;;;5.28;1.25;;;25.40;72.30;;;;;;5008043;28;20108;-65
2022/07/17 11:12:52;;;;;;;2.65;1.20;;;25.50;70.90;;;;;;5009348;28;20162;-64
2022/07/17 11:15:18;;;;;;;6.60;1.55;;;25.60;71.60;;;;;;5007725;28;20494;-65
2022/07/17 11:17:46;;;;;;;4.60;1.33;;;25.60;70.70;;;;;;5007907;28;20046;-64
2022/07/17 11:20:12;;;;;;;2.60;1.20;;;25.60;69.20;;;;;;4990982;28;20037;-64
2022/07/17 11:22:38;;;;;;;3.40;1.20;;;25.70;70.70;;;;;;5006381;28;20660;-64
2022/07/17 11:25:06;;;;;;;3.55;1.15;;;25.90;70.30;;;;;;5004898;28;20065;-65
2022/07/17 11:27:32;;;;;;;2.72;1.10;;;26.00;69.10;;;;;;5007355;28;20155;-65
2022/07/17 11:30:00;;;;;;;3.53;1.48;;;26.20;68.50;;;;;;5006952;28;20092;-64
2022/07/17 11:32:37;;;;;;;2.47;1.20;;;26.30;69.20;;;;;;5006215;28;21131;-64
2022/07/17 11:35:20;;;;;;;4.95;1.40;;;26.40;68.80;;;;;;4998824;28;20057;-63
2022/07/17 11:37:48;;;;;;;3.92;1.45;;;26.50;66.60;;;;;;4991439;28;20500;-65
2022/07/17 11:40:14;;;;;;;2.88;1.10;;;26.40;66.90;;;;;;5006420;28;20042;-64
2022/07/17 11:42:40;;;;;;;3.03;1.08;;;26.50;67.50;;;;;;5005626;28;20104;-64
2022/07/17 11:45:07;;;;;;;3.38;1.40;;;26.50;65.40;;;;;;5007818;28;20140;-64
2022/07/17 11:47:33;;;;;;;2.85;1.20;;;26.60;66.00;;;;;;5022243;28;20124;-63
2022/07/17 11:50:25;;;;;;;2.10;1.20;;;26.70;65.50;;;;;;5005788;28;20046;-64
2022/07/17 11:52:51;;;;;;;2.17;1.38;;;26.90;66.30;;;;;;5004365;28;20054;-65
2022/07/17 11:55:17;;;;;;;3.58;1.60;;;26.90;65.30;;;;;;5006284;28;20049;-64
2022/07/17 11:57:46;;;;;;;10.35;2.17;;;27.00;65.00;;;;;;5003698;28;20049;-64
2022/07/17 12:00:13;;;;;;;3.10;1.83;;;27.20;64.80;;;;;;5006456;28;20046;-64
2022/07/17 12:02:39;;;;;;;4.45;1.65;;;27.40;63.60;;;;;;5005884;28;20046;-64
2022/07/17 12:05:05;;;;;;;3.00;1.48;;;27.50;63.50;;;;;;4985568;28;20046;-65
2022/07/17 12:07:43;;;;;;;4.60;1.70;;;27.70;63.10;;;;;;5007061;28;20554;-65
2022/07/17 12:10:13;;;;;;;3.10;1.65;;;27.80;62.10;;;;;;5004877;28;20135;-65
2022/07/17 12:12:39;;;;;;;3.88;1.88;;;28.00;63.70;;;;;;5003807;28;20046;-64
2022/07/17 12:15:06;;;;;;;3.70;2.05;;;28.10;60.90;;;;;;4984280;28;20434;-65
2022/07/17 12:17:39;;;;;;;2.95;1.60;;;28.20;61.50;;;;;;5018625;28;20052;-65
2022/07/17 12:20:08;;;;;;;2.45;1.60;;;28.30;59.90;;;;;;5001951;28;20053;-65
2022/07/17 12:22:48;;;;;;;4.72;1.73;;;28.20;59.60;;;;;;5004116;28;20054;-64
2022/07/17 12:25:27;;;;;;;2.28;1.40;;;28.20;58.10;;;;;;4979198;28;20607;-64
2022/07/17 12:27:54;;;;;;;2.60;1.50;;;28.30;60.20;;;;;;5002492;28;20050;-64
2022/07/17 12:30:20;;;;;;;2.67;1.85;;;28.40;58.30;;;;;;4999773;28;20054;-64
2022/07/17 12:32:49;;;;;;;3.58;1.67;;;28.50;57.70;;;;;;5018150;28;20049;-64
2022/07/17 12:35:16;;;;;;;5.00;1.92;;;28.50;57.40;;;;;;5003193;28;20046;-65
2022/07/17 12:37:42;;;;;;;2.50;1.65;;;28.60;56.80;;;;;;5004203;28;20046;-64
2022/07/17 12:40:08;;;;;;;3.05;1.80;;;28.60;58.60;;;;;;5019238;28;20041;-64
2022/07/17 12:42:34;;;;;;;3.65;2.10;;;28.90;58.20;;;;;;5002927;28;20060;-66
2022/07/17 12:45:01;;;;;;;4.25;1.98;;;29.00;56.90;;;;;;5004074;28;20038;-65
2022/07/17 12:47:27;;;;;;;5.30;2.13;;;29.00;55.50;;;;;;4984956;28;20046;-65